sensor_id;sensor_type;location;lat;lon;timestamp;P1;durP1;ratioP1;P2;durP2;ratioP2
9438;SDS011;5176;42.622;25.386;2024-02-26T00:01:34;18.80;;;13.90;;
9438;SDS011;5176;42.622;25.386;2024-02-26T00:04:03;16.97;;;13.73;;
9438;SDS011;5176;42.622;25.386;2024-02-26T00:06:31;18.77;;;13.60;;
9438;SDS011;5176;42.622;25.386;2024-02-26T00:08:59;16.50;;;13.30;;
9438;SDS011;5176;42.622;25.386;2024-02-26T00:11:27;16.50;;;13.40;;
9438;SDS011;5176;42.622;25.386;2024-02-26T00:13:55;16.90;;;13.43;;
9438;SDS011;5176;42.622;25.386;2024-02-26T00:16:23;18.50;;;13.90;;
9438;SDS011;5176;42.622;25.386;2024-02-26T00:18:50;18.77;;;13.17;;
9438;SDS011;5176;42.622;25.386;2024-02-26T00:21:19;16.57;;;12.97;;
9438;SDS011;5176;42.622;25.386;2024-02-26T00:23:47;18.20;;;12.60;;
9438;SDS011;5176;42.622;25.386;2024-02-26T00:26:17;22.00;;;16.67;;
9438;SDS011;5176;42.622;25.386;2024-02-26T00:28:44;25.07;;;19.53;;
9438;SDS011;5176;42.622;25.386;2024-02-26T00:31:11;22.10;;;17.00;;
9438;SDS011;5176;42.622;25.386;2024-02-26T00:33:39;20.30;;;14.90;;
9438;SDS011;5176;42.622;25.386;2024-02-26T00:36:06;17.23;;;14.30;;
9438;SDS011;5176;42.622;25.386;2024-02-26T00:38:36;16.83;;;13.63;;
9438;SDS011;5176;42.622;25.386;2024-02-26T00:41:04;17.07;;;13.47;;
9438;SDS011;5176;42.622;25.386;2024-02-26T00:43:32;18.87;;;13.87;;
9438;SDS011;5176;42.622;25.386;2024-02-26T00:46:00;16.17;;;13.27;;
9438;SDS011;5176;42.622;25.386;2024-02-26T00:48:27;19.17;;;13.60;;
9438;SDS011;5176;42.622;25.386;2024-02-26T00:50:55;16.00;;;12.27;;
9438;SDS011;5176;42.622;25.386;2024-02-26T00:53:22;17.63;;;12.30;;
9438;SDS011;5176;42.622;25.386;2024-02-26T00:55:51;16.53;;;12.00;;
9438;SDS011;5176;42.622;25.386;2024-02-26T00:58:19;16.33;;;12.27;;
9438;SDS011;5176;42.622;25.386;2024-02-26T01:00:47;15.57;;;12.13;;
9438;SDS011;5176;42.622;25.386;2024-02-26T01:03:14;19.97;;;12.70;;
9438;SDS011;5176;42.622;25.386;2024-02-26T01:05:42;14.57;;;11.27;;
9438;SDS011;5176;42.622;25.386;2024-02-26T01:08:09;15.90;;;12.23;;
9438;SDS011;5176;42.622;25.386;2024-02-26T01:10:37;14.57;;;12.20;;
9438;SDS011;5176;42.622;25.386;2024-02-26T01:13:06;14.00;;;10.57;;
9438;SDS011;5176;42.622;25.386;2024-02-26T01:15:33;14.10;;;10.73;;
9438;SDS011;5176;42.622;25.386;2024-02-26T01:18:01;14.20;;;10.80;;
9438;SDS011;5176;42.622;25.386;2024-02-26T01:20:28;13.10;;;10.30;;
9438;SDS011;5176;42.622;25.386;2024-02-26T01:22:56;12.47;;;9.87;;
9438;SDS011;5176;42.622;25.386;2024-02-26T01:25:23;12.00;;;9.70;;
9438;SDS011;5176;42.622;25.386;2024-02-26T01:27:51;13.40;;;10.33;;
9438;SDS011;5176;42.622;25.386;2024-02-26T01:30:19;13.47;;;10.60;;
9438;SDS011;5176;42.622;25.386;2024-02-26T01:32:46;13.27;;;10.47;;
9438;SDS011;5176;42.622;25.386;2024-02-26T01:35:14;13.50;;;11.50;;
9438;SDS011;5176;42.622;25.386;2024-02-26T01:37:41;14.60;;;12.17;;
9438;SDS011;5176;42.622;25.386;2024-02-26T01:40:09;14.57;;;12.33;;
9438;SDS011;5176;42.622;25.386;2024-02-26T01:42:38;15.00;;;12.00;;
9438;SDS011;5176;42.622;25.386;2024-02-26T01:45:07;14.40;;;11.93;;
9438;SDS011;5176;42.622;25.386;2024-02-26T01:47:48;13.20;;;10.97;;
9438;SDS011;5176;42.622;25.386;2024-02-26T01:50:17;13.40;;;10.70;;
9438;SDS011;5176;42.622;25.386;2024-02-26T01:52:45;14.53;;;11.37;;
9438;SDS011;5176;42.622;25.386;2024-02-26T01:55:13;14.13;;;10.90;;
9438;SDS011;5176;42.622;25.386;2024-02-26T01:57:42;11.87;;;9.83;;
9438;SDS011;5176;42.622;25.386;2024-02-26T02:00:11;13.53;;;9.90;;
9438;SDS011;5176;42.622;25.386;2024-02-26T02:02:42;12.87;;;9.50;;
9438;SDS011;5176;42.622;25.386;2024-02-26T02:05:13;12.37;;;9.60;;
9438;SDS011;5176;42.622;25.386;2024-02-26T02:07:43;13.03;;;9.67;;
9438;SDS011;5176;42.622;25.386;2024-02-26T02:10:10;14.60;;;10.33;;
9438;SDS011;5176;42.622;25.386;2024-02-26T02:12:38;16.13;;;12.10;;
9438;SDS011;5176;42.622;25.386;2024-02-26T02:15:06;16.67;;;11.30;;
9438;SDS011;5176;42.622;25.386;2024-02-26T02:17:34;15.97;;;11.20;;
9438;SDS011;5176;42.622;25.386;2024-02-26T02:20:02;15.97;;;10.37;;
9438;SDS011;5176;42.622;25.386;2024-02-26T02:22:32;19.40;;;12.37;;
9438;SDS011;5176;42.622;25.386;2024-02-26T02:24:59;17.73;;;10.90;;
9438;SDS011;5176;42.622;25.386;2024-02-26T02:27:27;17.37;;;12.80;;
9438;SDS011;5176;42.622;25.386;2024-02-26T02:29:56;13.87;;;10.63;;
9438;SDS011;5176;42.622;25.386;2024-02-26T02:32:24;16.83;;;11.03;;
9438;SDS011;5176;42.622;25.386;2024-02-26T02:34:52;15.07;;;11.27;;
9438;SDS011;5176;42.622;25.386;2024-02-26T02:37:20;13.83;;;10.40;;
9438;SDS011;5176;42.622;25.386;2024-02-26T02:39:49;14.73;;;11.37;;
9438;SDS011;5176;42.622;25.386;2024-02-26T02:42:17;17.00;;;13.03;;
9438;SDS011;5176;42.622;25.386;2024-02-26T02:44:44;15.07;;;11.27;;
9438;SDS011;5176;42.622;25.386;2024-02-26T02:47:11;13.33;;;11.20;;
9438;SDS011;5176;42.622;25.386;2024-02-26T02:49:37;14.93;;;10.90;;
9438;SDS011;5176;42.622;25.386;2024-02-26T02:52:05;14.13;;;9.97;;
9438;SDS011;5176;42.622;25.386;2024-02-26T02:54:33;11.80;;;9.50;;
9438;SDS011;5176;42.622;25.386;2024-02-26T02:57:02;11.83;;;9.93;;
9438;SDS011;5176;42.622;25.386;2024-02-26T02:59:30;13.10;;;10.30;;
9438;SDS011;5176;42.622;25.386;2024-02-26T03:01:57;14.07;;;10.60;;
9438;SDS011;5176;42.622;25.386;2024-02-26T03:04:25;11.67;;;9.70;;
9438;SDS011;5176;42.622;25.386;2024-02-26T03:06:53;13.63;;;10.10;;
9438;SDS011;5176;42.622;25.386;2024-02-26T03:09:20;13.93;;;10.13;;
9438;SDS011;5176;42.622;25.386;2024-02-26T03:11:48;14.73;;;11.03;;
9438;SDS011;5176;42.622;25.386;2024-02-26T03:14:18;13.37;;;10.20;;
9438;SDS011;5176;42.622;25.386;2024-02-26T03:16:45;14.20;;;10.73;;
9438;SDS011;5176;42.622;25.386;2024-02-26T03:19:14;16.67;;;11.87;;
9438;SDS011;5176;42.622;25.386;2024-02-26T03:21:41;14.07;;;11.30;;
9438;SDS011;5176;42.622;25.386;2024-02-26T03:24:09;13.77;;;11.27;;
9438;SDS011;5176;42.622;25.386;2024-02-26T03:26:37;15.57;;;11.97;;
9438;SDS011;5176;42.622;25.386;2024-02-26T03:29:05;15.67;;;11.20;;
9438;SDS011;5176;42.622;25.386;2024-02-26T03:31:34;14.90;;;11.20;;
9438;SDS011;5176;42.622;25.386;2024-02-26T03:34:01;16.73;;;12.00;;
9438;SDS011;5176;42.622;25.386;2024-02-26T03:36:29;18.23;;;11.77;;
9438;SDS011;5176;42.622;25.386;2024-02-26T03:38:57;19.87;;;13.07;;
9438;SDS011;5176;42.622;25.386;2024-02-26T03:41:24;16.63;;;10.70;;
9438;SDS011;5176;42.622;25.386;2024-02-26T03:43:52;18.70;;;13.30;;
9438;SDS011;5176;42.622;25.386;2024-02-26T03:46:19;32.00;;;22.23;;
9438;SDS011;5176;42.622;25.386;2024-02-26T03:48:48;32.23;;;21.67;;
9438;SDS011;5176;42.622;25.386;2024-02-26T03:51:15;27.37;;;19.83;;
9438;SDS011;5176;42.622;25.386;2024-02-26T03:53:43;18.80;;;14.43;;
9438;SDS011;5176;42.622;25.386;2024-02-26T03:56:11;15.83;;;13.20;;
9438;SDS011;5176;42.622;25.386;2024-02-26T03:58:39;15.37;;;11.93;;
9438;SDS011;5176;42.622;25.386;2024-02-26T04:01:07;16.47;;;12.90;;
9438;SDS011;5176;42.622;25.386;2024-02-26T04:03:35;15.83;;;12.67;;
9438;SDS011;5176;42.622;25.386;2024-02-26T04:06:04;14.87;;;11.20;;
9438;SDS011;5176;42.622;25.386;2024-02-26T04:08:34;13.00;;;10.47;;
9438;SDS011;5176;42.622;25.386;2024-02-26T04:11:02;13.97;;;10.90;;
9438;SDS011;5176;42.622;25.386;2024-02-26T04:13:32;14.83;;;11.47;;
9438;SDS011;5176;42.622;25.386;2024-02-26T04:16:00;15.13;;;12.87;;
9438;SDS011;5176;42.622;25.386;2024-02-26T04:18:28;15.83;;;11.77;;
9438;SDS011;5176;42.622;25.386;2024-02-26T04:20:55;14.30;;;11.37;;
9438;SDS011;5176;42.622;25.386;2024-02-26T04:23:24;14.13;;;11.40;;
9438;SDS011;5176;42.622;25.386;2024-02-26T04:25:52;18.30;;;12.13;;
9438;SDS011;5176;42.622;25.386;2024-02-26T04:28:20;15.80;;;12.17;;
9438;SDS011;5176;42.622;25.386;2024-02-26T04:30:47;15.40;;;10.93;;
9438;SDS011;5176;42.622;25.386;2024-02-26T04:33:15;14.20;;;10.17;;
9438;SDS011;5176;42.622;25.386;2024-02-26T04:35:42;12.87;;;10.50;;
9438;SDS011;5176;42.622;25.386;2024-02-26T04:38:10;13.47;;;10.27;;
9438;SDS011;5176;42.622;25.386;2024-02-26T04:40:39;12.80;;;10.50;;
9438;SDS011;5176;42.622;25.386;2024-02-26T04:43:06;14.40;;;11.13;;
9438;SDS011;5176;42.622;25.386;2024-02-26T04:45:33;14.97;;;10.40;;
9438;SDS011;5176;42.622;25.386;2024-02-26T04:48:01;15.20;;;11.57;;
9438;SDS011;5176;42.622;25.386;2024-02-26T04:50:29;14.70;;;11.53;;
9438;SDS011;5176;42.622;25.386;2024-02-26T04:52:57;15.47;;;12.07;;
9438;SDS011;5176;42.622;25.386;2024-02-26T04:55:24;17.60;;;12.27;;
9438;SDS011;5176;42.622;25.386;2024-02-26T04:57:53;17.03;;;12.17;;
9438;SDS011;5176;42.622;25.386;2024-02-26T05:00:20;15.87;;;12.03;;
9438;SDS011;5176;42.622;25.386;2024-02-26T05:02:47;17.17;;;12.17;;
9438;SDS011;5176;42.622;25.386;2024-02-26T05:05:15;17.77;;;12.27;;
9438;SDS011;5176;42.622;25.386;2024-02-26T05:07:43;15.83;;;10.97;;
9438;SDS011;5176;42.622;25.386;2024-02-26T05:10:10;15.70;;;12.40;;
9438;SDS011;5176;42.622;25.386;2024-02-26T05:12:38;18.27;;;12.53;;
9438;SDS011;5176;42.622;25.386;2024-02-26T05:15:09;15.77;;;11.43;;
9438;SDS011;5176;42.622;25.386;2024-02-26T05:17:41;15.80;;;12.47;;
9438;SDS011;5176;42.622;25.386;2024-02-26T05:20:09;18.40;;;13.63;;
9438;SDS011;5176;42.622;25.386;2024-02-26T05:22:36;19.03;;;13.17;;
9438;SDS011;5176;42.622;25.386;2024-02-26T05:25:04;18.03;;;13.07;;
9438;SDS011;5176;42.622;25.386;2024-02-26T05:27:31;19.07;;;12.70;;
9438;SDS011;5176;42.622;25.386;2024-02-26T05:29:59;19.80;;;14.00;;
9438;SDS011;5176;42.622;25.386;2024-02-26T05:32:27;18.27;;;14.47;;
9438;SDS011;5176;42.622;25.386;2024-02-26T05:34:55;20.00;;;15.67;;
9438;SDS011;5176;42.622;25.386;2024-02-26T05:37:22;20.47;;;15.00;;
9438;SDS011;5176;42.622;25.386;2024-02-26T05:39:50;25.70;;;18.70;;
9438;SDS011;5176;42.622;25.386;2024-02-26T05:42:17;26.57;;;19.57;;
9438;SDS011;5176;42.622;25.386;2024-02-26T05:44:44;27.07;;;19.40;;
9438;SDS011;5176;42.622;25.386;2024-02-26T05:47:12;25.00;;;18.00;;
9438;SDS011;5176;42.622;25.386;2024-02-26T05:49:41;18.37;;;14.73;;
9438;SDS011;5176;42.622;25.386;2024-02-26T05:52:08;25.63;;;16.63;;
9438;SDS011;5176;42.622;25.386;2024-02-26T05:54:35;31.53;;;20.07;;
9438;SDS011;5176;42.622;25.386;2024-02-26T05:57:02;31.77;;;22.60;;
9438;SDS011;5176;42.622;25.386;2024-02-26T05:59:30;26.17;;;19.63;;
9438;SDS011;5176;42.622;25.386;2024-02-26T06:01:57;27.27;;;19.80;;
9438;SDS011;5176;42.622;25.386;2024-02-26T06:04:24;30.43;;;21.37;;
9438;SDS011;5176;42.622;25.386;2024-02-26T06:06:53;18.20;;;13.47;;
9438;SDS011;5176;42.622;25.386;2024-02-26T06:09:20;17.53;;;13.77;;
9438;SDS011;5176;42.622;25.386;2024-02-26T06:11:49;17.03;;;14.07;;
9438;SDS011;5176;42.622;25.386;2024-02-26T06:14:16;27.07;;;21.93;;
9438;SDS011;5176;42.622;25.386;2024-02-26T06:16:45;32.67;;;27.23;;
9438;SDS011;5176;42.622;25.386;2024-02-26T06:19:13;16.90;;;14.37;;
9438;SDS011;5176;42.622;25.386;2024-02-26T06:21:40;17.80;;;13.17;;
9438;SDS011;5176;42.622;25.386;2024-02-26T06:24:09;18.70;;;13.33;;
9438;SDS011;5176;42.622;25.386;2024-02-26T06:26:36;19.43;;;14.07;;
9438;SDS011;5176;42.622;25.386;2024-02-26T06:29:04;16.57;;;12.83;;
9438;SDS011;5176;42.622;25.386;2024-02-26T06:31:31;21.40;;;13.30;;
9438;SDS011;5176;42.622;25.386;2024-02-26T06:33:59;24.33;;;15.33;;
9438;SDS011;5176;42.622;25.386;2024-02-26T06:36:26;19.73;;;14.73;;
9438;SDS011;5176;42.622;25.386;2024-02-26T06:38:54;24.87;;;15.83;;
9438;SDS011;5176;42.622;25.386;2024-02-26T06:41:23;22.13;;;16.97;;
9438;SDS011;5176;42.622;25.386;2024-02-26T06:43:53;20.20;;;14.10;;
9438;SDS011;5176;42.622;25.386;2024-02-26T06:46:20;18.87;;;14.00;;
9438;SDS011;5176;42.622;25.386;2024-02-26T06:48:48;19.73;;;14.53;;
9438;SDS011;5176;42.622;25.386;2024-02-26T06:51:15;19.17;;;13.53;;
9438;SDS011;5176;42.622;25.386;2024-02-26T06:53:43;20.10;;;14.57;;
9438;SDS011;5176;42.622;25.386;2024-02-26T06:56:10;18.43;;;14.13;;
9438;SDS011;5176;42.622;25.386;2024-02-26T06:58:39;17.10;;;12.60;;
9438;SDS011;5176;42.622;25.386;2024-02-26T07:01:06;16.07;;;12.47;;
9438;SDS011;5176;42.622;25.386;2024-02-26T07:03:34;19.20;;;12.67;;
9438;SDS011;5176;42.622;25.386;2024-02-26T07:06:02;18.33;;;14.40;;
9438;SDS011;5176;42.622;25.386;2024-02-26T07:08:29;14.40;;;11.63;;
9438;SDS011;5176;42.622;25.386;2024-02-26T07:10:56;16.20;;;11.13;;
9438;SDS011;5176;42.622;25.386;2024-02-26T07:13:23;20.27;;;14.73;;
9438;SDS011;5176;42.622;25.386;2024-02-26T07:15:52;13.00;;;11.00;;
9438;SDS011;5176;42.622;25.386;2024-02-26T07:18:20;14.40;;;11.10;;
9438;SDS011;5176;42.622;25.386;2024-02-26T07:20:47;13.97;;;10.37;;
9438;SDS011;5176;42.622;25.386;2024-02-26T07:23:14;13.63;;;9.87;;
9438;SDS011;5176;42.622;25.386;2024-02-26T07:25:42;14.83;;;9.63;;
9438;SDS011;5176;42.622;25.386;2024-02-26T07:28:12;17.20;;;11.50;;
9438;SDS011;5176;42.622;25.386;2024-02-26T07:30:39;16.87;;;11.43;;
9438;SDS011;5176;42.622;25.386;2024-02-26T07:33:08;13.93;;;11.40;;
9438;SDS011;5176;42.622;25.386;2024-02-26T07:35:35;10.87;;;8.90;;
9438;SDS011;5176;42.622;25.386;2024-02-26T07:38:04;12.63;;;9.77;;
9438;SDS011;5176;42.622;25.386;2024-02-26T07:40:31;13.80;;;10.33;;
9438;SDS011;5176;42.622;25.386;2024-02-26T07:42:58;13.30;;;11.20;;
9438;SDS011;5176;42.622;25.386;2024-02-26T07:45:26;14.37;;;10.03;;
9438;SDS011;5176;42.622;25.386;2024-02-26T07:47:53;12.47;;;10.80;;
9438;SDS011;5176;42.622;25.386;2024-02-26T07:50:22;13.10;;;10.63;;
9438;SDS011;5176;42.622;25.386;2024-02-26T07:52:49;17.10;;;10.87;;
9438;SDS011;5176;42.622;25.386;2024-02-26T07:55:18;14.33;;;10.63;;
9438;SDS011;5176;42.622;25.386;2024-02-26T07:57:45;14.50;;;10.73;;
9438;SDS011;5176;42.622;25.386;2024-02-26T08:00:13;13.10;;;10.37;;
9438;SDS011;5176;42.622;25.386;2024-02-26T08:02:42;15.97;;;10.73;;
9438;SDS011;5176;42.622;25.386;2024-02-26T08:05:09;16.97;;;12.43;;
9438;SDS011;5176;42.622;25.386;2024-02-26T08:07:38;82.00;;;19.30;;
9438;SDS011;5176;42.622;25.386;2024-02-26T08:10:06;19.47;;;12.13;;
9438;SDS011;5176;42.622;25.386;2024-02-26T08:12:34;15.90;;;11.70;;
9438;SDS011;5176;42.622;25.386;2024-02-26T08:15:01;18.80;;;12.57;;
9438;SDS011;5176;42.622;25.386;2024-02-26T08:17:29;19.03;;;13.03;;
9438;SDS011;5176;42.622;25.386;2024-02-26T08:19:58;15.23;;;12.73;;
9438;SDS011;5176;42.622;25.386;2024-02-26T08:22:25;15.00;;;12.03;;
9438;SDS011;5176;42.622;25.386;2024-02-26T08:24:54;20.17;;;14.10;;
9438;SDS011;5176;42.622;25.386;2024-02-26T08:27:21;23.67;;;15.00;;
9438;SDS011;5176;42.622;25.386;2024-02-26T08:29:48;18.40;;;13.60;;
9438;SDS011;5176;42.622;25.386;2024-02-26T08:32:16;203.17;;;32.00;;
9438;SDS011;5176;42.622;25.386;2024-02-26T08:34:43;23.20;;;15.30;;
9438;SDS011;5176;42.622;25.386;2024-02-26T08:37:10;17.40;;;14.10;;
9438;SDS011;5176;42.622;25.386;2024-02-26T08:39:38;17.57;;;13.90;;
9438;SDS011;5176;42.622;25.386;2024-02-26T08:42:06;17.60;;;13.27;;
9438;SDS011;5176;42.622;25.386;2024-02-26T08:44:34;18.07;;;14.30;;
9438;SDS011;5176;42.622;25.386;2024-02-26T08:47:01;17.43;;;14.47;;
9438;SDS011;5176;42.622;25.386;2024-02-26T08:49:29;26.90;;;14.83;;
9438;SDS011;5176;42.622;25.386;2024-02-26T08:51:56;18.47;;;12.17;;
9438;SDS011;5176;42.622;25.386;2024-02-26T08:54:23;15.37;;;12.43;;
9438;SDS011;5176;42.622;25.386;2024-02-26T08:56:51;28.00;;;14.07;;
9438;SDS011;5176;42.622;25.386;2024-02-26T08:59:20;32.80;;;14.90;;
9438;SDS011;5176;42.622;25.386;2024-02-26T09:01:48;17.03;;;11.83;;
9438;SDS011;5176;42.622;25.386;2024-02-26T09:04:15;12.90;;;10.87;;
9438;SDS011;5176;42.622;25.386;2024-02-26T09:06:42;14.50;;;11.30;;
9438;SDS011;5176;42.622;25.386;2024-02-26T09:09:10;16.00;;;12.10;;
9438;SDS011;5176;42.622;25.386;2024-02-26T09:11:38;18.60;;;13.30;;
9438;SDS011;5176;42.622;25.386;2024-02-26T09:14:05;15.57;;;12.83;;
9438;SDS011;5176;42.622;25.386;2024-02-26T09:16:34;19.77;;;12.20;;
9438;SDS011;5176;42.622;25.386;2024-02-26T09:19:01;15.80;;;11.97;;
9438;SDS011;5176;42.622;25.386;2024-02-26T09:21:29;16.80;;;12.23;;
9438;SDS011;5176;42.622;25.386;2024-02-26T09:23:56;16.20;;;11.93;;
9438;SDS011;5176;42.622;25.386;2024-02-26T09:26:23;30.80;;;13.53;;
9438;SDS011;5176;42.622;25.386;2024-02-26T09:28:51;19.47;;;11.70;;
9438;SDS011;5176;42.622;25.386;2024-02-26T09:31:18;13.07;;;9.68;;
9438;SDS011;5176;42.622;25.386;2024-02-26T09:33:47;13.43;;;10.30;;
9438;SDS011;5176;42.622;25.386;2024-02-26T09:36:15;14.03;;;9.83;;
9438;SDS011;5176;42.622;25.386;2024-02-26T09:38:42;13.70;;;9.40;;
9438;SDS011;5176;42.622;25.386;2024-02-26T09:41:11;11.98;;;10.05;;
9438;SDS011;5176;42.622;25.386;2024-02-26T09:43:42;13.47;;;9.57;;
9438;SDS011;5176;42.622;25.386;2024-02-26T09:46:11;13.65;;;9.50;;
9438;SDS011;5176;42.622;25.386;2024-02-26T09:48:40;15.97;;;9.87;;
9438;SDS011;5176;42.622;25.386;2024-02-26T09:51:11;14.73;;;9.37;;
9438;SDS011;5176;42.622;25.386;2024-02-26T09:53:40;12.67;;;9.80;;
9438;SDS011;5176;42.622;25.386;2024-02-26T09:56:11;20.87;;;11.50;;
9438;SDS011;5176;42.622;25.386;2024-02-26T09:58:38;16.93;;;10.93;;
9438;SDS011;5176;42.622;25.386;2024-02-26T10:01:10;13.87;;;10.53;;
9438;SDS011;5176;42.622;25.386;2024-02-26T10:03:41;13.77;;;9.48;;
9438;SDS011;5176;42.622;25.386;2024-02-26T10:06:10;12.97;;;10.13;;
9438;SDS011;5176;42.622;25.386;2024-02-26T10:08:39;14.35;;;10.05;;
9438;SDS011;5176;42.622;25.386;2024-02-26T10:11:06;11.65;;;9.75;;
9438;SDS011;5176;42.622;25.386;2024-02-26T10:13:34;15.60;;;10.73;;
9438;SDS011;5176;42.622;25.386;2024-02-26T10:16:02;15.33;;;11.03;;
9438;SDS011;5176;42.622;25.386;2024-02-26T10:18:44;12.65;;;9.50;;
9438;SDS011;5176;42.622;25.386;2024-02-26T10:21:14;11.55;;;8.95;;
9438;SDS011;5176;42.622;25.386;2024-02-26T10:23:44;11.23;;;9.30;;
9438;SDS011;5176;42.622;25.386;2024-02-26T10:26:13;12.30;;;8.90;;
9438;SDS011;5176;42.622;25.386;2024-02-26T10:28:41;10.15;;;8.07;;
9438;SDS011;5176;42.622;25.386;2024-02-26T10:31:11;10.90;;;8.38;;
9438;SDS011;5176;42.622;25.386;2024-02-26T10:33:40;9.68;;;7.60;;
9438;SDS011;5176;42.622;25.386;2024-02-26T10:36:09;11.20;;;7.13;;
9438;SDS011;5176;42.622;25.386;2024-02-26T10:38:38;9.75;;;7.45;;
9438;SDS011;5176;42.622;25.386;2024-02-26T10:41:05;12.38;;;8.25;;
9438;SDS011;5176;42.622;25.386;2024-02-26T10:43:34;6.97;;;5.53;;
9438;SDS011;5176;42.622;25.386;2024-02-26T10:46:01;5.45;;;4.80;;
9438;SDS011;5176;42.622;25.386;2024-02-26T10:48:28;6.90;;;5.82;;
9438;SDS011;5176;42.622;25.386;2024-02-26T10:50:56;8.25;;;6.32;;
9438;SDS011;5176;42.622;25.386;2024-02-26T10:53:25;7.45;;;4.85;;
9438;SDS011;5176;42.622;25.386;2024-02-26T10:55:57;5.97;;;4.63;;
9438;SDS011;5176;42.622;25.386;2024-02-26T10:58:28;6.13;;;4.40;;
9438;SDS011;5176;42.622;25.386;2024-02-26T11:00:57;4.45;;;4.05;;
9438;SDS011;5176;42.622;25.386;2024-02-26T11:03:26;5.50;;;3.97;;
9438;SDS011;5176;42.622;25.386;2024-02-26T11:05:53;4.32;;;3.92;;
9438;SDS011;5176;42.622;25.386;2024-02-26T11:08:23;4.80;;;3.30;;
9438;SDS011;5176;42.622;25.386;2024-02-26T11:10:52;5.35;;;3.95;;
9438;SDS011;5176;42.622;25.386;2024-02-26T11:13:21;4.07;;;3.65;;
9438;SDS011;5176;42.622;25.386;2024-02-26T11:15:53;9.43;;;4.60;;
9438;SDS011;5176;42.622;25.386;2024-02-26T11:18:23;5.38;;;3.67;;
9438;SDS011;5176;42.622;25.386;2024-02-26T11:20:54;4.82;;;4.40;;
9438;SDS011;5176;42.622;25.386;2024-02-26T11:23:23;4.93;;;3.95;;
9438;SDS011;5176;42.622;25.386;2024-02-26T11:25:50;5.97;;;3.95;;
9438;SDS011;5176;42.622;25.386;2024-02-26T11:28:22;6.97;;;4.07;;
9438;SDS011;5176;42.622;25.386;2024-02-26T11:30:52;6.85;;;4.85;;
9438;SDS011;5176;42.622;25.386;2024-02-26T11:33:20;5.35;;;3.33;;
9438;SDS011;5176;42.622;25.386;2024-02-26T11:35:48;4.53;;;3.83;;
9438;SDS011;5176;42.622;25.386;2024-02-26T11:38:19;5.85;;;4.47;;
9438;SDS011;5176;42.622;25.386;2024-02-26T11:40:47;3.90;;;3.60;;
9438;SDS011;5176;42.622;25.386;2024-02-26T11:43:15;5.05;;;3.40;;
9438;SDS011;5176;42.622;25.386;2024-02-26T11:45:50;6.75;;;3.70;;
9438;SDS011;5176;42.622;25.386;2024-02-26T11:48:22;6.07;;;4.03;;
9438;SDS011;5176;42.622;25.386;2024-02-26T11:50:51;7.15;;;4.45;;
9438;SDS011;5176;42.622;25.386;2024-02-26T11:53:19;8.07;;;4.95;;
9438;SDS011;5176;42.622;25.386;2024-02-26T11:55:48;6.30;;;5.13;;
9438;SDS011;5176;42.622;25.386;2024-02-26T11:58:36;9.52;;;5.47;;
9438;SDS011;5176;42.622;25.386;2024-02-26T12:01:07;10.40;;;4.93;;
9438;SDS011;5176;42.622;25.386;2024-02-26T12:04:15;7.82;;;4.65;;
9438;SDS011;5176;42.622;25.386;2024-02-26T12:06:46;5.80;;;5.15;;
9438;SDS011;5176;42.622;25.386;2024-02-26T12:12:01;50.70;;;9.27;;
9438;SDS011;5176;42.622;25.386;2024-02-26T12:14:32;15.68;;;6.85;;
9438;SDS011;5176;42.622;25.386;2024-02-26T12:17:01;5.45;;;4.90;;
9438;SDS011;5176;42.622;25.386;2024-02-26T12:19:32;6.65;;;5.70;;
9438;SDS011;5176;42.622;25.386;2024-02-26T12:22:00;9.25;;;6.88;;
9438;SDS011;5176;42.622;25.386;2024-02-26T12:24:28;7.43;;;5.53;;
9438;SDS011;5176;42.622;25.386;2024-02-26T12:26:55;27.17;;;7.20;;
9438;SDS011;5176;42.622;25.386;2024-02-26T12:29:23;73.00;;;10.48;;
9438;SDS011;5176;42.622;25.386;2024-02-26T12:31:50;9.38;;;5.28;;
9438;SDS011;5176;42.622;25.386;2024-02-26T12:34:21;7.25;;;5.43;;
9438;SDS011;5176;42.622;25.386;2024-02-26T12:36:50;13.13;;;6.60;;
9438;SDS011;5176;42.622;25.386;2024-02-26T12:39:19;9.55;;;5.38;;
9438;SDS011;5176;42.622;25.386;2024-02-26T12:41:46;17.30;;;6.10;;
9438;SDS011;5176;42.622;25.386;2024-02-26T12:44:15;11.10;;;5.30;;
9438;SDS011;5176;42.622;25.386;2024-02-26T12:46:42;24.67;;;6.43;;
9438;SDS011;5176;42.622;25.386;2024-02-26T12:49:14;6.68;;;4.30;;
9438;SDS011;5176;42.622;25.386;2024-02-26T12:51:45;14.35;;;5.63;;
9438;SDS011;5176;42.622;25.386;2024-02-26T12:54:12;5.45;;;4.93;;
9438;SDS011;5176;42.622;25.386;2024-02-26T12:56:40;7.47;;;4.47;;
9438;SDS011;5176;42.622;25.386;2024-02-26T12:59:08;5.22;;;4.65;;
9438;SDS011;5176;42.622;25.386;2024-02-26T13:01:36;7.53;;;5.20;;
9438;SDS011;5176;42.622;25.386;2024-02-26T13:04:06;8.80;;;5.63;;
9438;SDS011;5176;42.622;25.386;2024-02-26T13:06:36;10.48;;;5.65;;
9438;SDS011;5176;42.622;25.386;2024-02-26T13:09:07;9.57;;;5.80;;
9438;SDS011;5176;42.622;25.386;2024-02-26T13:11:36;8.52;;;5.68;;
9438;SDS011;5176;42.622;25.386;2024-02-26T13:14:07;8.23;;;5.65;;
9438;SDS011;5176;42.622;25.386;2024-02-26T13:16:34;8.85;;;6.32;;
9438;SDS011;5176;42.622;25.386;2024-02-26T13:19:08;8.95;;;6.25;;
9438;SDS011;5176;42.622;25.386;2024-02-26T13:21:35;11.57;;;6.85;;
9438;SDS011;5176;42.622;25.386;2024-02-26T13:24:03;58.40;;;12.13;;
9438;SDS011;5176;42.622;25.386;2024-02-26T13:26:35;7.93;;;6.43;;
9438;SDS011;5176;42.622;25.386;2024-02-26T13:29:03;8.80;;;6.63;;
9438;SDS011;5176;42.622;25.386;2024-02-26T13:31:30;17.05;;;10.48;;
9438;SDS011;5176;42.622;25.386;2024-02-26T13:33:58;25.48;;;17.35;;
9438;SDS011;5176;42.622;25.386;2024-02-26T13:36:25;9.18;;;7.25;;
9438;SDS011;5176;42.622;25.386;2024-02-26T13:38:53;9.23;;;6.88;;
9438;SDS011;5176;42.622;25.386;2024-02-26T13:41:21;8.23;;;6.90;;
9438;SDS011;5176;42.622;25.386;2024-02-26T13:43:50;9.27;;;6.57;;
9438;SDS011;5176;42.622;25.386;2024-02-26T13:46:17;8.32;;;6.55;;
9438;SDS011;5176;42.622;25.386;2024-02-26T13:48:45;14.48;;;10.48;;
9438;SDS011;5176;42.622;25.386;2024-02-26T13:51:12;8.50;;;6.10;;
9438;SDS011;5176;42.622;25.386;2024-02-26T13:53:40;18.60;;;16.60;;
9438;SDS011;5176;42.622;25.386;2024-02-26T13:56:07;31.70;;;10.32;;
9438;SDS011;5176;42.622;25.386;2024-02-26T13:58:37;10.80;;;5.60;;
9438;SDS011;5176;42.622;25.386;2024-02-26T14:01:06;11.55;;;5.32;;
9438;SDS011;5176;42.622;25.386;2024-02-26T14:03:34;9.10;;;5.75;;
9438;SDS011;5176;42.622;25.386;2024-02-26T14:06:01;7.40;;;4.93;;
9438;SDS011;5176;42.622;25.386;2024-02-26T14:08:29;9.20;;;5.38;;
9438;SDS011;5176;42.622;25.386;2024-02-26T14:10:57;7.32;;;5.63;;
9438;SDS011;5176;42.622;25.386;2024-02-26T14:13:26;6.88;;;5.10;;
9438;SDS011;5176;42.622;25.386;2024-02-26T14:15:54;8.57;;;5.13;;
9438;SDS011;5176;42.622;25.386;2024-02-26T14:18:22;7.28;;;4.75;;
9438;SDS011;5176;42.622;25.386;2024-02-26T14:20:50;8.43;;;5.65;;
9438;SDS011;5176;42.622;25.386;2024-02-26T14:23:18;9.63;;;5.88;;
9438;SDS011;5176;42.622;25.386;2024-02-26T14:25:45;12.50;;;5.78;;
9438;SDS011;5176;42.622;25.386;2024-02-26T14:28:12;10.30;;;5.82;;
9438;SDS011;5176;42.622;25.386;2024-02-26T14:30:40;10.00;;;5.95;;
9438;SDS011;5176;42.622;25.386;2024-02-26T14:33:09;13.63;;;7.70;;
9438;SDS011;5176;42.622;25.386;2024-02-26T14:35:38;11.77;;;6.78;;
9438;SDS011;5176;42.622;25.386;2024-02-26T14:38:05;9.00;;;6.32;;
9438;SDS011;5176;42.622;25.386;2024-02-26T14:40:32;8.48;;;6.18;;
9438;SDS011;5176;42.622;25.386;2024-02-26T14:43:00;13.50;;;7.18;;
9438;SDS011;5176;42.622;25.386;2024-02-26T14:45:29;12.77;;;6.35;;
9438;SDS011;5176;42.622;25.386;2024-02-26T14:47:57;11.77;;;6.80;;
9438;SDS011;5176;42.622;25.386;2024-02-26T14:50:25;11.38;;;7.07;;